AAY3891 KPVU-KBUR
Flight info
| Callsign | AAY3891 |
|---|---|
| Flight time | N/A |
| Altitude | 38000 |
| Route | DITTI1 DAHLI MLF WINEN/N0433F370 EEVUN/N0434F380 Q73 GUNTR Q96 PURSE JANNY5 |
| Aircraft | A320/M-SDE3FGHIRWY/LB1 |
Departure
| Time | 2026-05-08 03:30 |
|---|---|
| Airport | Provo Municipal Airport (KPVU) |
Arrival
| Time | N/A |
|---|---|
| Airport | Hollywood Burbank/Bob Hope Airport (KBUR) |
| Time | Latitude | Longitude | Altitude | Speed | Heading |
|---|---|---|---|---|---|
| 2026-05-08 03:14 | 40.21336 | -111.71304 | 4498 ft | 0 kts | 56° |
| 2026-05-08 03:20 | 40.21333 | -111.71310 | 4498 ft | 2 kts | 56° |
| 2026-05-08 03:21 | 40.21323 | -111.71332 | 4501 ft | 3 kts | 61° |
| 2026-05-08 03:21 | 40.21314 | -111.71355 | 4500 ft | 3 kts | 66° |
| 2026-05-08 03:21 | 40.21308 | -111.71373 | 4501 ft | 1 kts | 68° |
| 2026-05-08 03:21 | 40.21306 | -111.71378 | 4500 ft | 0 kts | 68° |
| 2026-05-08 03:24 | 40.21306 | -111.71377 | 4500 ft | 0 kts | 69° |
| 2026-05-08 03:25 | 40.21300 | -111.71356 | 4501 ft | 4 kts | 120° |
| 2026-05-08 03:25 | 40.21285 | -111.71340 | 4499 ft | 2 kts | 162° |
| 2026-05-08 03:26 | 40.21270 | -111.71349 | 4498 ft | 3 kts | 212° |
| 2026-05-08 03:26 | 40.21246 | -111.71386 | 4503 ft | 2 kts | 234° |
| 2026-05-08 03:26 | 40.21236 | -111.71406 | 4501 ft | 1 kts | 236° |
| 2026-05-08 03:26 | 40.21218 | -111.71421 | 4500 ft | 9 kts | 195° |
| 2026-05-08 03:27 | 40.21183 | -111.71400 | 4498 ft | 3 kts | 146° |
| 2026-05-08 03:27 | 40.21165 | -111.71391 | 4501 ft | 3 kts | 171° |
| 2026-05-08 03:27 | 40.21144 | -111.71400 | 4497 ft | 6 kts | 211° |
| 2026-05-08 03:27 | 40.21102 | -111.71470 | 4500 ft | 10 kts | 236° |
| 2026-05-08 03:28 | 40.21092 | -111.71532 | 4497 ft | 6 kts | 313° |
| 2026-05-08 03:28 | 40.21102 | -111.71542 | 4500 ft | 0 kts | 324° |
| 2026-05-08 03:29 | 40.21107 | -111.71546 | 4502 ft | 5 kts | 324° |
| 2026-05-08 03:29 | 40.21310 | -111.71726 | 4501 ft | 73 kts | 326° |
| 2026-05-08 03:29 | 40.21924 | -111.72272 | 4501 ft | 138 kts | 326° |
| 2026-05-08 03:29 | 40.22858 | -111.73089 | 4674 ft | 173 kts | 326° |
| 2026-05-08 03:30 | 40.24097 | -111.75537 | 6125 ft | 172 kts | 262° |
| 2026-05-08 03:30 | 40.22708 | -111.78242 | 6743 ft | 204 kts | 228° |
| 2026-05-08 03:31 | 40.20571 | -111.81265 | 7059 ft | 249 kts | 229° |
| 2026-05-08 03:31 | 40.18034 | -111.84888 | 7949 ft | 282 kts | 229° |
| 2026-05-08 03:32 | 40.16704 | -111.86798 | 8752 ft | 284 kts | 230° |
| 2026-05-08 03:32 | 40.15372 | -111.88715 | 9596 ft | 286 kts | 230° |
| 2026-05-08 03:32 | 40.14002 | -111.90615 | 10388 ft | 289 kts | 224° |
| 2026-05-08 03:32 | 40.12190 | -111.92006 | 10669 ft | 318 kts | 205° |
| 2026-05-08 03:33 | 40.09990 | -111.92895 | 10870 ft | 344 kts | 197° |
| 2026-05-08 03:33 | 40.07586 | -111.93529 | 10958 ft | 368 kts | 193° |
| 2026-05-08 03:33 | 40.04988 | -111.94073 | 11068 ft | 390 kts | 191° |
| 2026-05-08 03:33 | 40.02203 | -111.94196 | 11261 ft | 410 kts | 179° |
| 2026-05-08 03:34 | 39.99332 | -111.93718 | 11740 ft | 420 kts | 171° |
| 2026-05-08 03:34 | 39.96478 | -111.92746 | 12313 ft | 426 kts | 166° |
| 2026-05-08 03:34 | 39.93625 | -111.91659 | 12911 ft | 430 kts | 166° |
| 2026-05-08 03:34 | 39.90713 | -111.90672 | 13493 ft | 433 kts | 172° |
| 2026-05-08 03:35 | 39.87723 | -111.90255 | 14016 ft | 432 kts | 182° |
| 2026-05-08 03:35 | 39.84709 | -111.90459 | 14471 ft | 434 kts | 191° |
| 2026-05-08 03:35 | 39.81735 | -111.90966 | 14885 ft | 439 kts | 191° |
| 2026-05-08 03:35 | 39.78649 | -111.91490 | 15340 ft | 443 kts | 191° |
| 2026-05-08 03:36 | 39.75614 | -111.91999 | 15782 ft | 447 kts | 190° |
| 2026-05-08 03:36 | 39.72557 | -111.92741 | 16212 ft | 448 kts | 198° |
| 2026-05-08 03:36 | 39.69622 | -111.94103 | 16619 ft | 447 kts | 208° |
| 2026-05-08 03:36 | 39.66903 | -111.96054 | 17049 ft | 447 kts | 216° |
| 2026-05-08 03:37 | 39.64277 | -111.98244 | 17474 ft | 451 kts | 216° |
| 2026-05-08 03:37 | 39.61621 | -112.00443 | 17903 ft | 453 kts | 216° |
| 2026-05-08 03:37 | 39.58950 | -112.02638 | 18324 ft | 456 kts | 216° |
| 2026-05-08 03:37 | 39.56260 | -112.04838 | 18662 ft | 458 kts | 216° |
| 2026-05-08 03:38 | 39.53546 | -112.07050 | 18986 ft | 461 kts | 216° |
| 2026-05-08 03:38 | 39.50823 | -112.09264 | 19309 ft | 464 kts | 216° |
| 2026-05-08 03:38 | 39.48085 | -112.11491 | 19624 ft | 466 kts | 216° |
| 2026-05-08 03:38 | 39.46261 | -112.12975 | 19835 ft | 468 kts | 216° |
| 2026-05-08 03:39 | 39.43497 | -112.15227 | 20114 ft | 471 kts | 216° |
| 2026-05-08 03:39 | 39.40720 | -112.17494 | 20395 ft | 473 kts | 216° |
| 2026-05-08 03:39 | 39.37021 | -112.20513 | 20745 ft | 476 kts | 216° |
| 2026-05-08 03:39 | 39.34206 | -112.22807 | 21032 ft | 478 kts | 216° |
| 2026-05-08 03:40 | 39.32302 | -112.24357 | 21241 ft | 480 kts | 216° |
| 2026-05-08 03:40 | 39.29508 | -112.26625 | 21534 ft | 482 kts | 216° |
| 2026-05-08 03:40 | 39.26660 | -112.28936 | 21825 ft | 484 kts | 216° |
| 2026-05-08 03:40 | 39.23802 | -112.31256 | 22084 ft | 487 kts | 216° |
| 2026-05-08 03:41 | 39.20932 | -112.33584 | 22341 ft | 489 kts | 215° |
| 2026-05-08 03:41 | 39.18042 | -112.35926 | 22588 ft | 491 kts | 215° |
| 2026-05-08 03:41 | 39.15144 | -112.38271 | 22827 ft | 493 kts | 215° |
| 2026-05-08 03:41 | 39.12224 | -112.40628 | 22991 ft | 494 kts | 215° |
| 2026-05-08 03:42 | 39.09306 | -112.42980 | 23045 ft | 494 kts | 215° |
| 2026-05-08 03:42 | 39.06386 | -112.45332 | 23042 ft | 494 kts | 215° |
| 2026-05-08 03:42 | 39.03507 | -112.47649 | 23058 ft | 494 kts | 215° |
| 2026-05-08 03:42 | 39.00594 | -112.49987 | 23058 ft | 494 kts | 215° |
| 2026-05-08 03:43 | 38.97678 | -112.52324 | 22924 ft | 494 kts | 215° |
| 2026-05-08 03:43 | 38.94765 | -112.54659 | 22932 ft | 494 kts | 215° |
| 2026-05-08 03:43 | 38.91849 | -112.56996 | 22940 ft | 494 kts | 215° |
| 2026-05-08 03:43 | 38.88923 | -112.59343 | 23128 ft | 496 kts | 215° |
| 2026-05-08 03:44 | 38.85996 | -112.61686 | 23330 ft | 498 kts | 215° |
| 2026-05-08 03:44 | 38.83043 | -112.64047 | 23497 ft | 500 kts | 215° |
| 2026-05-08 03:44 | 38.80092 | -112.66403 | 23738 ft | 500 kts | 215° |
| 2026-05-08 03:44 | 38.77126 | -112.68769 | 24000 ft | 499 kts | 215° |
| 2026-05-08 03:45 | 38.74220 | -112.71086 | 24247 ft | 499 kts | 215° |
| 2026-05-08 03:45 | 38.71235 | -112.73463 | 24500 ft | 498 kts | 215° |
| 2026-05-08 03:45 | 38.68292 | -112.75806 | 24759 ft | 498 kts | 215° |
| 2026-05-08 03:45 | 38.65349 | -112.78145 | 25044 ft | 497 kts | 215° |
| 2026-05-08 03:46 | 38.62451 | -112.80444 | 25302 ft | 497 kts | 215° |
| 2026-05-08 03:46 | 38.59510 | -112.82777 | 25556 ft | 497 kts | 214° |
| 2026-05-08 03:46 | 38.56561 | -112.85114 | 25823 ft | 497 kts | 214° |
| 2026-05-08 03:46 | 38.53620 | -112.87442 | 26126 ft | 497 kts | 214° |
| 2026-05-08 03:47 | 38.50679 | -112.89772 | 26437 ft | 496 kts | 214° |
| 2026-05-08 03:47 | 38.47749 | -112.92090 | 26748 ft | 495 kts | 214° |